Time;durP1;ratioP1;P1;durP2;ratioP2;P2;SDS_P1;SDS_P2;PMS_P1;PMS_P2;Temp;Humidity;BMP_temperature;BMP_pressure;BME280_temperature;BME280_humidity;BME280_pressure;Samples;Min_cycle;Max_cycle;Signal;HPM_P1;HPM_P2
2021/11/02 00:01:42;;;;;;;18.05;12.70;;;25.10;36.70;;;;;;6145398;28;82865;-65
2021/11/02 00:04:43;;;;;;;21.88;12.52;;;25.10;36.70;;;;;;6144805;28;83257;-65
2021/11/02 00:07:46;;;;;;;18.50;13.20;;;25.10;36.80;;;;;;6135266;28;84444;-65
2021/11/02 00:10:46;;;;;;;21.83;14.05;;;25.10;36.80;;;;;;6138755;28;83180;-65
2021/11/02 00:13:48;;;;;;;23.13;14.00;;;25.10;36.80;;;;;;6140565;28;83906;-66
2021/11/02 00:16:56;;;;;;;19.40;13.60;;;25.10;36.70;;;;;;6147452;28;83880;-66
2021/11/02 00:20:01;;;;;;;21.48;13.80;;;25.10;36.60;;;;;;6149179;28;85788;-66
2021/11/02 00:23:03;;;;;;;21.83;13.52;;;25.10;36.70;;;;;;6142631;28;83074;-67
2021/11/02 00:26:04;;;;;;;22.30;13.60;;;25.10;36.70;;;;;;6145565;28;82927;-64
2021/11/02 00:29:06;;;;;;;22.52;14.73;;;25.10;36.60;;;;;;6141716;28;83605;-67
2021/11/02 00:32:07;;;;;;;20.67;13.93;;;25.10;36.70;;;;;;6134428;28;84090;-66
2021/11/02 00:35:07;;;;;;;20.92;13.90;;;25.10;36.70;;;;;;6148679;28;85997;-66
2021/11/02 00:38:08;;;;;;;20.67;13.38;;;25.10;36.70;;;;;;6143033;28;84145;-66
2021/11/02 00:41:08;;;;;;;22.48;14.13;;;25.10;36.70;;;;;;6136355;28;83445;-66
2021/11/02 00:44:10;;;;;;;20.77;13.98;;;25.10;36.70;;;;;;6143094;28;84507;-66
2021/11/02 00:47:13;;;;;;;21.23;14.02;;;25.10;36.60;;;;;;6155369;28;83001;-65
2021/11/02 00:50:13;;;;;;;23.00;14.52;;;25.10;36.60;;;;;;6148850;28;83363;-65
2021/11/02 00:53:14;;;;;;;21.10;14.10;;;25.10;36.60;;;;;;6141323;28;83125;-64
2021/11/02 00:56:14;;;;;;;21.92;14.10;;;25.10;36.50;;;;;;6133326;28;83034;-63
2021/11/02 00:59:16;;;;;;;20.50;14.65;;;25.10;36.50;;;;;;6151350;28;85903;-64
2021/11/02 01:02:18;;;;;;;22.70;14.88;;;25.10;36.60;;;;;;6137835;28;85920;-64
2021/11/02 01:05:19;;;;;;;23.05;14.95;;;25.10;36.50;;;;;;6133162;28;83289;-64
2021/11/02 01:08:19;;;;;;;23.75;14.65;;;25.10;36.50;;;;;;6142936;28;84066;-64
2021/11/02 01:11:20;;;;;;;23.30;15.05;;;25.10;36.50;;;;;;6152473;28;83096;-64
2021/11/02 01:14:21;;;;;;;22.25;14.25;;;25.10;36.50;;;;;;6140617;28;83746;-64
2021/11/02 01:17:22;;;;;;;22.30;14.48;;;25.10;36.50;;;;;;6138160;28;82821;-64
2021/11/02 01:20:22;;;;;;;19.13;11.90;;;25.10;36.50;;;;;;6145320;28;85675;-64
2021/11/02 01:23:23;;;;;;;19.98;13.07;;;25.10;37.30;;;;;;6154755;28;84728;-64
2021/11/02 01:26:23;;;;;;;22.83;14.25;;;25.10;37.50;;;;;;6143991;28;85668;-64
2021/11/02 01:29:25;;;;;;;22.85;14.93;;;25.10;37.20;;;;;;6133383;28;85951;-63
2021/11/02 01:32:27;;;;;;;21.77;14.38;;;25.10;37.10;;;;;;6145294;28;85581;-64
2021/11/02 01:35:29;;;;;;;21.55;14.75;;;25.10;37.10;;;;;;6135079;28;85960;-63
2021/11/02 01:38:33;;;;;;;23.13;14.80;;;25.10;36.90;;;;;;6137739;28;85861;-64
2021/11/02 01:41:41;;;;;;;21.25;14.20;;;25.10;36.90;;;;;;6139807;28;85197;-63
2021/11/02 01:44:42;;;;;;;21.55;13.68;;;25.10;36.90;;;;;;6143209;28;85671;-64
2021/11/02 01:47:45;;;;;;;19.80;12.73;;;25.10;37.00;;;;;;6137248;28;90189;-64
2021/11/02 01:50:50;;;;;;;18.92;13.07;;;25.10;37.30;;;;;;6147516;28;85863;-64
2021/11/02 01:53:50;;;;;;;20.35;13.43;;;25.10;37.20;;;;;;6148793;28;85447;-64
2021/11/02 01:56:52;;;;;;;20.63;13.80;;;25.10;37.20;;;;;;6139410;28;85959;-64
2021/11/02 01:59:56;;;;;;;20.25;13.40;;;25.00;37.20;;;;;;6149054;28;83963;-63
2021/11/02 02:03:02;;;;;;;20.02;13.13;;;25.00;37.20;;;;;;6163076;28;85833;-64
2021/11/02 02:06:03;;;;;;;19.60;13.63;;;25.10;37.20;;;;;;6118717;28;85720;-64
2021/11/02 02:09:06;;;;;;;17.27;12.10;;;25.00;37.10;;;;;;6144195;28;84858;-64
2021/11/02 02:12:13;;;;;;;19.20;13.43;;;25.10;37.30;;;;;;6148331;28;86095;-64
2021/11/02 02:15:14;;;;;;;18.92;12.95;;;25.00;37.20;;;;;;6153256;28;84720;-66
2021/11/02 02:18:15;;;;;;;19.05;12.73;;;25.10;37.40;;;;;;6142007;28;84224;-65
2021/11/02 02:21:16;;;;;;;18.88;12.43;;;25.00;37.70;;;;;;6144095;28;82829;-65
2021/11/02 02:24:20;;;;;;;19.33;12.55;;;25.10;38.00;;;;;;6148973;28;85604;-65
2021/11/02 02:27:21;;;;;;;19.50;13.98;;;25.10;37.60;;;;;;6150787;28;86119;-64
2021/11/02 02:30:22;;;;;;;19.40;12.77;;;25.10;37.60;;;;;;6136715;28;85478;-64
2021/11/02 02:33:23;;;;;;;18.50;12.98;;;25.00;37.60;;;;;;6137238;28;85491;-65
2021/11/02 02:36:24;;;;;;;18.20;13.38;;;25.00;37.60;;;;;;6140100;28;85420;-65
2021/11/02 02:39:32;;;;;;;22.48;12.52;;;25.00;37.60;;;;;;6150870;28;84206;-65
2021/11/02 02:42:42;;;;;;;17.98;12.77;;;25.10;37.80;;;;;;6149711;28;85422;-65
2021/11/02 02:45:46;;;;;;;20.60;13.60;;;25.00;37.70;;;;;;6141211;28;85789;-65
2021/11/02 02:48:47;;;;;;;18.10;11.88;;;25.00;37.70;;;;;;6139171;28;85876;-65
2021/11/02 02:51:48;;;;;;;17.67;11.55;;;25.10;38.20;;;;;;6150858;28;83484;-64
2021/11/02 02:54:49;;;;;;;17.88;11.63;;;25.00;38.30;;;;;;6134851;28;86046;-65
2021/11/02 02:57:49;;;;;;;18.55;12.60;;;25.00;38.80;;;;;;6137582;28;86236;-65
2021/11/02 03:00:51;;;;;;;18.77;12.93;;;25.00;38.60;;;;;;6139442;28;85753;-65
2021/11/02 03:03:51;;;;;;;17.48;12.18;;;25.00;38.50;;;;;;6136809;28;83320;-65
2021/11/02 03:06:55;;;;;;;17.60;12.65;;;25.00;38.20;;;;;;6147331;28;86132;-65
2021/11/02 03:09:57;;;;;;;19.20;13.13;;;25.00;38.00;;;;;;6147966;28;85074;-64
2021/11/02 03:12:59;;;;;;;19.75;13.30;;;25.00;38.00;;;;;;6135143;28;85734;-65
2021/11/02 03:16:03;;;;;;;16.20;12.23;;;25.00;38.00;;;;;;6137652;28;83640;-65
2021/11/02 03:49:09;;;;;;;18.77;11.85;;;25.00;38.50;;;;;;6153454;28;85156;-64
2021/11/02 03:55:35;;;;;;;16.15;11.52;;;25.00;38.70;;;;;;6145572;28;85940;-65
2021/11/02 03:58:48;;;;;;;16.10;11.55;;;25.00;38.90;;;;;;6142805;28;86065;-64
2021/11/02 06:09:01;;;;;;;17.65;12.13;;;24.50;47.70;;;;;;6146566;28;87724;-64
2021/11/02 06:28:38;;;;;;;18.02;11.77;;;24.50;48.20;;;;;;6141364;28;84178;-65
2021/11/02 06:31:41;;;;;;;19.17;10.90;;;24.60;48.00;;;;;;6144434;28;83559;-64
2021/11/02 06:42:24;;;;;;;18.15;11.25;;;24.50;47.70;;;;;;6152049;28;83457;-65
2021/11/02 06:54:57;;;;;;;17.75;12.02;;;24.50;47.40;;;;;;6139826;28;82974;-66
2021/11/02 08:47:09;;;;;;;19.45;10.88;;;24.60;49.50;;;;;;6146659;28;84369;-67
2021/11/02 08:50:09;;;;;;;18.75;12.23;;;24.60;48.20;;;;;;6151440;28;83535;-67
2021/11/02 08:53:10;;;;;;;16.63;12.07;;;24.70;47.70;;;;;;6147243;28;83156;-66
2021/11/02 08:56:10;;;;;;;19.42;12.52;;;24.70;47.40;;;;;;6151611;28;83331;-66
2021/11/02 08:59:11;;;;;;;20.90;13.93;;;24.70;46.30;;;;;;6154185;28;83090;-66
2021/11/02 09:02:11;;;;;;;22.83;12.55;;;24.70;45.40;;;;;;6151673;28;84859;-66
2021/11/02 09:05:14;;;;;;;22.10;13.73;;;24.80;44.90;;;;;;6149987;28;84129;-66
2021/11/02 09:08:15;;;;;;;24.05;14.10;;;24.80;44.50;;;;;;6149819;28;83417;-66
2021/11/02 09:11:16;;;;;;;21.77;14.18;;;24.80;44.10;;;;;;6147180;28;84746;-67
2021/11/02 09:14:17;;;;;;;20.90;14.10;;;24.80;43.70;;;;;;6141697;28;83322;-68
2021/11/02 09:17:18;;;;;;;19.38;13.68;;;24.80;43.70;;;;;;6150509;28;84311;-69
2021/11/02 09:20:18;;;;;;;24.48;15.00;;;24.70;43.50;;;;;;6148393;28;84411;-69
2021/11/02 09:23:19;;;;;;;20.25;14.77;;;24.80;43.30;;;;;;6147937;28;83570;-67
2021/11/02 09:26:20;;;;;;;20.63;14.98;;;24.80;43.50;;;;;;6147232;28;83754;-66
2021/11/02 09:29:20;;;;;;;20.52;14.20;;;24.80;43.40;;;;;;6150818;28;84331;-67
2021/11/02 09:32:21;;;;;;;28.02;15.73;;;24.80;43.40;;;;;;6148149;28;83291;-64
2021/11/02 09:35:21;;;;;;;25.77;15.07;;;24.70;44.60;;;;;;6151372;28;83237;-66
2021/11/02 09:38:22;;;;;;;22.17;15.15;;;24.70;44.40;;;;;;6147717;28;83629;-66
2021/11/02 09:41:23;;;;;;;21.23;14.63;;;24.70;44.20;;;;;;6147236;28;82974;-66
2021/11/02 09:44:28;;;;;;;24.53;15.80;;;24.70;43.80;;;;;;6152886;28;83431;-68
2021/11/02 09:47:30;;;;;;;21.85;14.32;;;24.70;43.80;;;;;;6150914;28;83052;-66
2021/11/02 09:50:30;;;;;;;22.73;15.38;;;24.80;43.50;;;;;;6148598;28;84103;-68
2021/11/02 09:53:31;;;;;;;25.00;15.05;;;24.80;43.50;;;;;;6150302;28;83820;-66
2021/11/02 09:56:32;;;;;;;29.90;16.83;;;24.80;44.40;;;;;;6148043;28;83506;-65
2021/11/02 09:59:36;;;;;;;25.33;16.50;;;24.80;43.10;;;;;;6144577;28;83936;-65
2021/11/02 10:02:37;;;;;;;24.92;14.68;;;24.80;43.00;;;;;;6148549;28;84293;-65
2021/11/02 10:05:41;;;;;;;25.88;17.15;;;24.80;43.10;;;;;;6143660;28;83846;-67
2021/11/02 10:08:43;;;;;;;25.83;16.30;;;24.70;42.90;;;;;;6149641;28;83087;-66
2021/11/02 10:11:44;;;;;;;22.70;15.85;;;24.70;43.00;;;;;;6151462;28;90736;-69
2021/11/02 10:14:45;;;;;;;30.17;15.73;;;24.70;43.30;;;;;;6149248;28;83676;-68
2021/11/02 10:17:54;;;;;;;24.53;15.20;;;24.70;42.80;;;;;;6145267;28;83398;-69
2021/11/02 10:20:55;;;;;;;;;;;24.70;42.50;;;;;;6151378;28;84010;-68
2021/11/02 10:23:56;;;;;;;22.83;15.65;;;24.70;42.10;;;;;;6162768;28;83995;-66
2021/11/02 10:26:56;;;;;;;29.20;18.10;;;24.70;42.60;;;;;;6150204;28;83069;-68
2021/11/02 10:29:58;;;;;;;25.95;16.05;;;24.70;42.30;;;;;;6150829;28;83222;-68
2021/11/02 10:33:03;;;;;;;21.77;15.73;;;24.70;42.10;;;;;;6148208;28;83290;-69
2021/11/02 10:36:03;;;;;;;24.75;15.82;;;24.70;42.20;;;;;;6145583;28;86163;-68
2021/11/02 10:39:04;;;;;;;24.50;16.25;;;24.70;42.20;;;;;;6153054;28;85625;-67
2021/11/02 10:42:08;;;;;;;25.38;15.50;;;24.70;42.50;;;;;;6151615;28;83183;-67
2021/11/02 10:45:10;;;;;;;22.33;14.95;;;24.70;42.20;;;;;;6149412;28;83156;-67
2021/11/02 10:48:10;;;;;;;21.05;14.80;;;24.80;42.30;;;;;;6150034;28;85854;-67
2021/11/02 10:51:11;;;;;;;21.90;14.63;;;24.80;42.20;;;;;;6143483;28;85421;-66
2021/11/02 10:54:12;;;;;;;31.27;15.77;;;24.70;42.20;;;;;;6146866;28;83551;-66
2021/11/02 10:57:12;;;;;;;24.92;15.40;;;24.70;42.20;;;;;;6144552;28;83405;-67
2021/11/02 11:00:13;;;;;;;25.98;15.45;;;24.70;42.20;;;;;;6144954;28;83945;-68
2021/11/02 11:03:13;;;;;;;22.10;14.32;;;24.70;42.10;;;;;;6150149;28;86969;-70
2021/11/02 11:06:14;;;;;;;23.83;14.57;;;24.80;42.30;;;;;;6151938;28;83524;-70
2021/11/02 11:09:14;;;;;;;24.63;14.80;;;24.80;42.20;;;;;;6150220;28;83653;-69
2021/11/02 11:12:15;;;;;;;21.85;14.30;;;24.80;42.30;;;;;;6149537;28;83251;-67
2021/11/02 11:15:15;;;;;;;23.67;13.82;;;24.70;42.70;;;;;;6152603;28;83841;-68
2021/11/02 11:18:16;;;;;;;23.33;14.73;;;24.70;42.80;;;;;;6148614;28;83514;-68
2021/11/02 11:21:16;;;;;;;23.08;14.93;;;24.70;42.80;;;;;;6146156;28;84400;-68
2021/11/02 11:24:17;;;;;;;20.00;14.38;;;24.80;42.90;;;;;;6145137;28;82940;-68
2021/11/02 11:27:17;;;;;;;22.02;14.68;;;24.80;43.20;;;;;;6145428;28;83433;-70
2021/11/02 11:30:18;;;;;;;23.70;14.02;;;24.80;43.40;;;;;;6141054;28;83120;-70
2021/11/02 11:33:19;;;;;;;20.20;13.55;;;24.80;43.40;;;;;;6145340;28;83551;-69
2021/11/02 11:36:20;;;;;;;20.25;13.18;;;24.80;43.40;;;;;;6142375;28;83106;-69
2021/11/02 11:39:20;;;;;;;22.70;13.57;;;24.80;43.90;;;;;;6144698;28;83302;-68
2021/11/02 11:42:21;;;;;;;23.85;14.00;;;24.90;44.00;;;;;;6137732;28;84139;-68
2021/11/02 11:45:21;;;;;;;21.20;14.90;;;24.80;43.60;;;;;;6149852;28;84293;-68
2021/11/02 11:48:24;;;;;;;18.15;13.40;;;24.80;43.60;;;;;;6145156;28;83492;-69
2021/11/02 11:51:25;;;;;;;20.75;14.00;;;24.80;43.60;;;;;;6142485;28;82969;-69
2021/11/02 11:54:26;;;;;;;17.92;12.88;;;24.80;43.60;;;;;;6147252;28;84071;-68
2021/11/02 11:57:27;;;;;;;20.27;13.63;;;24.80;43.70;;;;;;6144100;28;84297;-65
2021/11/02 12:00:29;;;;;;;18.25;13.32;;;24.80;43.90;;;;;;6137091;28;84270;-67
2021/11/02 12:03:30;;;;;;;21.27;14.13;;;24.80;43.80;;;;;;6141818;28;83142;-68
2021/11/02 12:06:31;;;;;;;20.17;14.43;;;24.80;43.80;;;;;;6149777;28;85994;-69
2021/11/02 12:09:31;;;;;;;17.80;13.55;;;24.80;43.90;;;;;;6140571;28;83247;-66
2021/11/02 12:12:32;;;;;;;19.50;12.65;;;24.80;43.90;;;;;;6140944;28;83598;-68
2021/11/02 12:15:33;;;;;;;18.25;13.43;;;24.80;43.70;;;;;;6142823;28;83656;-68
2021/11/02 12:18:35;;;;;;;18.60;13.15;;;24.80;43.70;;;;;;6137745;28;83667;-69
2021/11/02 12:21:36;;;;;;;20.02;14.15;;;24.80;43.90;;;;;;6138311;28;83161;-69
2021/11/02 12:24:38;;;;;;;17.33;13.15;;;24.80;43.90;;;;;;6137500;28;84341;-68
2021/11/02 12:27:38;;;;;;;21.40;13.63;;;24.80;43.90;;;;;;6144446;28;83250;-68
2021/11/02 12:30:39;;;;;;;17.45;12.65;;;24.80;43.70;;;;;;6146230;28;84191;-67
2021/11/02 12:33:39;;;;;;;17.13;12.98;;;24.80;44.20;;;;;;6141942;28;83488;-67
2021/11/02 12:36:40;;;;;;;19.77;13.00;;;24.80;43.50;;;;;;6146004;28;83364;-68
2021/11/02 12:39:40;;;;;;;19.30;12.95;;;24.80;43.30;;;;;;6143757;28;83178;-66
2021/11/02 12:42:43;;;;;;;17.80;12.95;;;24.80;43.30;;;;;;6135202;28;82858;-68
2021/11/02 12:45:43;;;;;;;18.27;13.40;;;24.80;43.20;;;;;;6146687;28;83324;-68
2021/11/02 12:48:44;;;;;;;20.23;13.05;;;24.80;43.20;;;;;;6139619;28;83106;-68
2021/11/02 12:51:48;;;;;;;19.10;13.35;;;24.70;43.40;;;;;;6143455;28;83522;-67
2021/11/02 12:54:49;;;;;;;21.05;12.50;;;24.70;43.30;;;;;;6143170;28;84196;-67
2021/11/02 12:57:50;;;;;;;18.50;12.55;;;24.80;43.30;;;;;;6139910;28;83568;-65
2021/11/02 13:00:50;;;;;;;18.23;13.13;;;24.80;43.70;;;;;;6141196;28;84312;-64
2021/11/02 13:03:51;;;;;;;17.52;12.68;;;24.70;43.40;;;;;;6141185;28;84031;-65
2021/11/02 13:06:51;;;;;;;20.10;13.80;;;24.80;43.60;;;;;;6141281;28;83492;-65
2021/11/02 13:09:52;;;;;;;15.15;11.63;;;24.80;43.40;;;;;;6133303;28;83166;-64
2021/11/02 13:12:54;;;;;;;19.85;11.98;;;24.80;43.40;;;;;;6137581;28;84447;-64
2021/11/02 13:15:54;;;;;;;20.15;12.05;;;24.80;43.60;;;;;;6146406;28;83024;-65
2021/11/02 13:18:55;;;;;;;18.73;12.25;;;24.80;43.90;;;;;;6142236;28;86086;-64
2021/11/02 13:21:55;;;;;;;16.00;11.98;;;24.80;43.60;;;;;;6140329;28;84067;-66
2021/11/02 13:24:56;;;;;;;17.50;12.35;;;24.80;43.50;;;;;;6141144;28;82970;-63
2021/11/02 13:27:56;;;;;;;17.08;11.60;;;24.80;43.60;;;;;;6140877;28;84114;-64
2021/11/02 13:30:57;;;;;;;17.77;12.77;;;24.80;43.60;;;;;;6144021;28;84214;-64
2021/11/02 13:33:57;;;;;;;17.33;12.00;;;24.80;43.50;;;;;;6143758;28;86077;-63
2021/11/02 13:36:58;;;;;;;18.17;12.25;;;24.80;43.40;;;;;;6137273;28;83490;-63
2021/11/02 13:39:58;;;;;;;17.77;11.60;;;24.80;43.50;;;;;;6141444;28;90668;-64
2021/11/02 13:42:59;;;;;;;26.67;13.52;;;24.80;43.70;;;;;;6143858;28;83623;-63
2021/11/02 13:45:59;;;;;;;23.60;13.07;;;24.80;44.00;;;;;;6142919;28;83523;-63
2021/11/02 13:49:00;;;;;;;19.10;12.77;;;24.80;44.20;;;;;;6137526;28;84002;-64
2021/11/02 13:52:00;;;;;;;23.10;13.57;;;24.80;44.50;;;;;;6145138;28;84022;-63
2021/11/02 13:55:01;;;;;;;25.50;13.27;;;24.80;45.10;;;;;;6140869;28;83159;-64
2021/11/02 13:58:02;;;;;;;26.17;12.95;;;24.90;44.60;;;;;;6145662;28;83115;-64
2021/11/02 14:01:02;;;;;;;23.50;13.73;;;24.80;44.60;;;;;;6138624;28;83354;-65
2021/11/02 14:04:03;;;;;;;27.25;13.00;;;24.80;44.50;;;;;;6146887;28;83697;-64
2021/11/02 14:07:03;;;;;;;22.55;13.00;;;24.80;44.60;;;;;;6143980;28;84262;-64
2021/11/02 14:10:05;;;;;;;22.10;12.73;;;24.80;44.50;;;;;;6142671;28;84115;-64
2021/11/02 14:13:05;;;;;;;23.30;13.77;;;24.80;44.90;;;;;;6138894;28;84046;-65
2021/11/02 14:16:06;;;;;;;21.90;13.05;;;24.80;44.40;;;;;;6145556;28;83418;-64
2021/11/02 14:19:06;;;;;;;72.22;29.05;;;24.80;44.10;;;;;;6139246;28;83631;-64
2021/11/02 14:22:07;;;;;;;439.08;138.43;;;24.80;45.00;;;;;;6138693;28;82886;-64
2021/11/02 14:25:07;;;;;;;928.35;361.95;;;24.80;44.70;;;;;;6141066;28;85674;-65
2021/11/02 14:28:08;;;;;;;808.85;312.92;;;24.80;44.50;;;;;;6141882;28;87191;-65
2021/11/02 14:31:08;;;;;;;634.95;228.27;;;24.80;44.30;;;;;;6141463;28;85938;-65
2021/11/02 14:34:09;;;;;;;610.40;212.50;;;24.80;44.20;;;;;;6148151;28;85444;-64
2021/11/02 14:37:11;;;;;;;502.85;179.57;;;24.80;44.30;;;;;;6146340;28;85423;-63
2021/11/02 14:40:11;;;;;;;485.05;157.90;;;24.80;43.90;;;;;;6137140;28;86788;-63
2021/11/02 14:43:12;;;;;;;441.23;142.65;;;24.80;44.10;;;;;;6135674;28;85966;-65
2021/11/02 14:46:12;;;;;;;400.38;133.77;;;24.80;44.20;;;;;;6136375;28;85942;-63
2021/11/02 14:49:13;;;;;;;322.15;110.68;;;24.80;43.90;;;;;;6139098;28;85465;-63
2021/11/02 14:52:13;;;;;;;314.88;106.45;;;24.80;44.20;;;;;;6141486;28;92916;-65
2021/11/02 14:55:14;;;;;;;266.02;90.72;;;24.80;44.10;;;;;;6146101;28;86741;-64
2021/11/02 14:58:14;;;;;;;215.13;83.88;;;24.80;44.20;;;;;;6143192;28;86414;-64
2021/11/02 15:01:15;;;;;;;186.45;71.78;;;24.90;44.40;;;;;;6147906;28;84276;-64
2021/11/02 15:04:17;;;;;;;189.65;68.20;;;24.90;44.50;;;;;;6138538;28;83266;-64
2021/11/02 15:07:18;;;;;;;174.70;65.68;;;24.90;44.40;;;;;;6148236;28;84705;-64
2021/11/02 15:10:19;;;;;;;171.82;63.35;;;24.90;44.20;;;;;;6148155;28;83300;-63
2021/11/02 15:13:19;;;;;;;167.10;62.08;;;24.90;44.10;;;;;;6142938;28;83376;-64
2021/11/02 15:16:20;;;;;;;158.88;60.03;;;24.90;44.10;;;;;;6138789;28;83365;-64
2021/11/02 15:19:21;;;;;;;129.80;53.42;;;24.90;44.10;;;;;;6126797;28;85826;-64
2021/11/02 15:22:21;;;;;;;135.30;52.53;;;24.90;44.00;;;;;;6149735;28;83168;-64
2021/11/02 15:25:22;;;;;;;108.70;45.67;;;24.90;44.00;;;;;;6143132;28;84354;-65
2021/11/02 15:28:22;;;;;;;106.95;43.70;;;24.90;44.20;;;;;;6145073;28;83393;-64
2021/11/02 15:31:23;;;;;;;97.88;39.13;;;24.90;44.00;;;;;;6150282;28;83997;-63
2021/11/02 15:34:24;;;;;;;89.22;37.33;;;24.90;44.00;;;;;;6146797;28;83351;-63
2021/11/02 15:37:25;;;;;;;84.40;35.65;;;24.90;43.70;;;;;;6144804;28;88515;-62
2021/11/02 15:40:25;;;;;;;84.38;35.95;;;24.90;43.60;;;;;;6147663;28;83743;-65
2021/11/02 15:43:26;;;;;;;79.90;35.03;;;24.90;43.90;;;;;;6148989;28;85151;-64
2021/11/02 15:46:27;;;;;;;73.40;33.10;;;24.80;43.40;;;;;;6143185;28;83203;-64
2021/11/02 15:49:27;;;;;;;69.22;30.40;;;24.80;43.40;;;;;;6149529;28;85977;-65
2021/11/02 15:52:28;;;;;;;61.85;30.63;;;24.80;43.30;;;;;;6141515;28;84064;-65
2021/11/02 15:55:29;;;;;;;70.03;29.77;;;24.80;43.40;;;;;;6148128;28;83410;-63
2021/11/02 15:58:29;;;;;;;67.35;28.92;;;24.80;43.50;;;;;;6140637;28;83143;-62
2021/11/02 16:01:30;;;;;;;61.13;27.65;;;24.80;43.60;;;;;;6142397;28;83092;-63
2021/11/02 16:04:30;;;;;;;55.72;25.60;;;24.80;43.50;;;;;;6148866;28;83451;-63
2021/11/02 16:07:31;;;;;;;48.38;26.02;;;24.80;43.40;;;;;;6136848;28;82974;-62
2021/11/02 16:10:31;;;;;;;57.60;26.27;;;24.80;43.60;;;;;;6142542;28;84317;-63
2021/11/02 16:13:32;;;;;;;52.58;25.33;;;24.80;44.00;;;;;;6143989;28;84514;-62
2021/11/02 16:16:33;;;;;;;46.70;23.50;;;24.80;43.30;;;;;;6146509;28;83354;-61
2021/11/02 16:19:33;;;;;;;44.30;22.23;;;24.80;43.70;;;;;;6138460;28;87500;-64
2021/11/02 16:22:34;;;;;;;43.13;21.83;;;24.80;43.70;;;;;;6139669;28;83419;-66
2021/11/02 16:25:35;;;;;;;36.40;20.75;;;24.80;43.80;;;;;;6139899;28;83282;-62
2021/11/02 16:28:35;;;;;;;38.78;20.27;;;24.80;43.60;;;;;;6141612;28;83732;-64
2021/11/02 16:31:36;;;;;;;44.83;20.05;;;24.80;43.90;;;;;;6141404;28;86102;-62
2021/11/02 16:34:36;;;;;;;34.17;18.40;;;24.80;43.80;;;;;;6150585;28;84367;-62
2021/11/02 16:37:37;;;;;;;34.83;18.08;;;24.80;43.90;;;;;;6140943;28;83565;-63
2021/11/02 16:40:37;;;;;;;33.00;17.77;;;24.80;44.10;;;;;;6137214;28;83901;-62
2021/11/02 16:43:38;;;;;;;30.88;18.17;;;24.80;44.30;;;;;;6138631;28;83160;-63
2021/11/02 16:46:38;;;;;;;35.88;18.88;;;24.80;44.20;;;;;;6136481;28;84654;-62
2021/11/02 16:49:39;;;;;;;28.90;17.02;;;24.80;44.00;;;;;;6145368;28;84371;-61
2021/11/02 16:52:41;;;;;;;32.67;18.88;;;24.80;43.90;;;;;;6145986;28;83935;-62
2021/11/02 16:55:44;;;;;;;25.70;16.33;;;24.80;44.00;;;;;;6138427;28;82938;-61
2021/11/02 16:58:44;;;;;;;26.75;16.33;;;24.80;43.70;;;;;;6138268;28;83248;-61
2021/11/02 17:01:45;;;;;;;25.50;16.75;;;24.80;43.80;;;;;;6135941;28;83037;-62
2021/11/02 17:04:45;;;;;;;31.17;16.50;;;24.80;43.50;;;;;;6143374;28;82770;-61
2021/11/02 17:07:46;;;;;;;25.48;16.88;;;24.70;43.50;;;;;;6148892;28;84141;-61
2021/11/02 17:10:47;;;;;;;24.65;15.43;;;24.70;43.80;;;;;;6150608;28;83823;-62
2021/11/02 17:13:47;;;;;;;25.48;15.70;;;24.70;43.50;;;;;;6149442;28;83512;-61
2021/11/02 17:16:48;;;;;;;25.13;15.90;;;24.70;43.60;;;;;;6139398;28;83833;-63
2021/11/02 17:19:49;;;;;;;23.73;15.57;;;24.70;43.60;;;;;;6144246;28;84307;-63
2021/11/02 17:22:50;;;;;;;24.98;15.13;;;24.70;43.30;;;;;;6141679;28;84529;-63
2021/11/02 17:25:50;;;;;;;22.08;15.10;;;24.70;43.60;;;;;;6144405;28;83212;-62
2021/11/02 17:28:51;;;;;;;25.30;15.00;;;24.70;43.60;;;;;;6138994;28;83456;-62
2021/11/02 17:31:52;;;;;;;22.73;14.70;;;24.70;43.70;;;;;;6141619;28;82867;-60
2021/11/02 17:34:53;;;;;;;22.52;15.52;;;24.70;43.90;;;;;;6138247;28;84149;-61
2021/11/02 17:37:53;;;;;;;24.73;14.98;;;24.70;44.00;;;;;;6136745;28;83655;-57
2021/11/02 17:40:54;;;;;;;21.80;14.00;;;24.80;44.00;;;;;;6139688;28;83997;-61
2021/11/02 17:43:55;;;;;;;21.80;14.20;;;24.80;43.70;;;;;;6136318;28;83231;-62
2021/11/02 17:46:56;;;;;;;21.15;13.65;;;24.70;43.90;;;;;;6142512;28;84439;-61
2021/11/02 17:49:56;;;;;;;21.08;13.90;;;24.80;44.10;;;;;;6137003;28;83395;-61
2021/11/02 17:52:57;;;;;;;18.55;13.95;;;24.80;44.30;;;;;;6147616;28;83860;-61
2021/11/02 17:55:57;;;;;;;17.80;13.02;;;24.80;44.40;;;;;;6141431;28;83996;-61
2021/11/02 17:58:58;;;;;;;19.50;13.13;;;24.80;44.20;;;;;;6143875;28;83483;-61
2021/11/02 18:01:59;;;;;;;17.80;12.63;;;24.80;44.60;;;;;;6137927;28;83550;-61
2021/11/02 18:05:00;;;;;;;20.92;14.38;;;24.80;45.10;;;;;;6149162;28;83423;-61
2021/11/02 18:08:00;;;;;;;20.27;14.10;;;24.80;44.80;;;;;;6145702;28;83451;-61
2021/11/02 18:11:01;;;;;;;20.33;13.18;;;24.80;44.60;;;;;;6140383;28;83515;-61
2021/11/02 18:14:01;;;;;;;22.65;13.10;;;24.80;44.80;;;;;;6134860;28;84050;-61
2021/11/02 18:17:02;;;;;;;16.83;12.10;;;24.80;45.00;;;;;;6141389;28;84255;-62
2021/11/02 18:20:02;;;;;;;18.88;13.45;;;24.90;45.40;;;;;;6146274;28;83132;-62
2021/11/02 18:23:03;;;;;;;19.15;12.48;;;24.80;45.50;;;;;;6147471;28;83951;-62
2021/11/02 18:26:03;;;;;;;17.85;12.13;;;24.90;46.00;;;;;;6140695;28;86883;-61
2021/11/02 18:29:06;;;;;;;16.35;11.70;;;24.90;46.50;;;;;;6144033;28;83148;-61
2021/11/02 18:32:06;;;;;;;17.55;12.07;;;24.90;45.40;;;;;;6138391;28;82984;-61
2021/11/02 18:35:07;;;;;;;17.52;11.30;;;24.90;45.30;;;;;;6139137;28;83039;-61
2021/11/02 18:38:08;;;;;;;19.30;12.23;;;24.90;45.90;;;;;;6138551;28;83038;-61
2021/11/02 18:41:08;;;;;;;15.48;11.30;;;24.90;45.50;;;;;;6146796;28;84146;-61
2021/11/02 18:44:09;;;;;;;16.45;11.88;;;24.90;45.70;;;;;;6146944;28;85436;-61
2021/11/02 18:47:14;;;;;;;16.02;11.27;;;24.90;45.80;;;;;;6147117;28;83323;-62
2021/11/02 18:50:15;;;;;;;14.40;11.65;;;24.90;46.00;;;;;;6136015;28;83352;-61
2021/11/02 18:53:15;;;;;;;14.82;10.93;;;24.90;45.40;;;;;;6148549;28;83770;-62
2021/11/02 18:56:16;;;;;;;14.88;10.20;;;24.90;45.50;;;;;;6142468;28;84744;-62
2021/11/02 18:59:17;;;;;;;14.07;9.68;;;24.90;45.50;;;;;;6145319;28;83003;-62
2021/11/02 19:02:17;;;;;;;13.82;9.75;;;24.90;45.70;;;;;;6148326;28;83647;-60
2021/11/02 19:05:18;;;;;;;12.57;9.80;;;24.90;44.70;;;;;;6138689;28;83933;-59
2021/11/02 19:08:18;;;;;;;14.02;9.07;;;24.90;44.30;;;;;;6150136;28;81898;-59
2021/11/02 19:11:19;;;;;;;22.40;9.48;;;24.90;44.20;;;;;;6152627;28;80700;-61
2021/11/02 19:14:19;;;;;;;14.48;10.00;;;24.90;44.10;;;;;;6151838;28;81542;-64
2021/11/02 19:17:20;;;;;;;12.63;8.88;;;24.80;43.90;;;;;;6138983;28;83168;-61
2021/11/02 19:20:21;;;;;;;13.88;9.40;;;24.80;43.90;;;;;;6140295;28;82762;-63
2021/11/02 19:23:22;;;;;;;12.77;9.18;;;24.80;43.50;;;;;;6141708;28;80883;-63
2021/11/02 19:26:22;;;;;;;13.52;9.43;;;24.80;43.80;;;;;;6139778;28;81932;-63
2021/11/02 19:29:23;;;;;;;13.07;8.52;;;24.80;43.90;;;;;;6147566;28;80449;-63
2021/11/02 19:32:23;;;;;;;10.95;8.25;;;24.80;44.20;;;;;;6160817;28;81055;-62
2021/11/02 19:35:24;;;;;;;14.63;8.48;;;24.90;43.80;;;;;;6161355;28;80969;-62
2021/11/02 19:38:24;;;;;;;17.70;8.75;;;24.90;44.10;;;;;;6153616;28;80409;-62
2021/11/02 19:41:25;;;;;;;20.70;9.27;;;24.90;44.10;;;;;;6147748;28;81005;-64
2021/11/02 19:44:27;;;;;;;20.75;7.80;;;24.90;44.00;;;;;;6148692;28;82177;-66
2021/11/02 19:47:27;;;;;;;17.17;7.43;;;24.90;43.90;;;;;;6153021;28;81892;-66
2021/11/02 19:50:28;;;;;;;14.63;8.18;;;24.90;43.70;;;;;;6162001;28;81707;-64
2021/11/02 19:53:31;;;;;;;16.73;7.80;;;24.90;43.70;;;;;;6150097;28;82643;-65
2021/11/02 19:56:31;;;;;;;13.43;8.15;;;24.90;43.50;;;;;;6149022;28;80685;-66
2021/11/02 19:59:32;;;;;;;11.73;8.05;;;24.90;43.50;;;;;;6149064;28;80334;-64
2021/11/02 20:02:34;;;;;;;14.93;8.35;;;24.90;44.00;;;;;;6138720;28;80676;-64
2021/11/02 20:05:34;;;;;;;13.68;9.07;;;24.80;44.10;;;;;;6144934;28;80758;-65
2021/11/02 20:08:35;;;;;;;13.05;9.18;;;24.80;44.00;;;;;;6145754;28;80485;-66
2021/11/02 20:11:35;;;;;;;10.77;7.72;;;24.80;44.00;;;;;;6164292;28;80382;-64
2021/11/02 20:14:36;;;;;;;13.95;7.88;;;24.80;44.00;;;;;;6150216;28;82228;-65
2021/11/02 20:17:36;;;;;;;12.63;8.32;;;24.80;43.90;;;;;;6142799;28;80316;-66
2021/11/02 20:20:37;;;;;;;11.60;8.20;;;24.80;44.00;;;;;;6155716;28;80483;-65
2021/11/02 20:23:37;;;;;;;12.90;8.30;;;24.80;43.90;;;;;;6146545;28;81262;-66